Time;durP1;ratioP1;P1;durP2;ratioP2;P2;SDS_P1;SDS_P2;PMS_P1;PMS_P2;Temp;Humidity;BMP_temperature;BMP_pressure;BME280_temperature;BME280_humidity;BME280_pressure;Samples;Min_cycle;Max_cycle;Signal;HPM_P1;HPM_P2
2023/07/14 00:01:56;;;;;;;5.27;3.73;;;;;;;;;;5073588;28;20274;-57
2023/07/14 00:04:26;;;;;;;5.43;4.47;;;;;;;;;;5072963;28;20587;-54
2023/07/14 00:06:53;;;;;;;4.77;4.33;;;;;;;;;;5073130;28;20286;-54
2023/07/14 00:09:21;;;;;;;5.67;4.57;;;;;;;;;;5072830;28;20650;-54
2023/07/14 00:11:47;;;;;;;5.53;4.13;;;;;;;;;;5072802;28;20203;-53
2023/07/14 00:14:14;;;;;;;4.37;3.90;;;;;;;;;;5072639;28;20282;-53
2023/07/14 00:16:40;;;;;;;4.57;4.17;;;;;;;;;;5072763;28;20227;-54
2023/07/14 00:19:11;;;;;;;5.70;4.60;;;;;;;;;;5072822;28;20213;-54
2023/07/14 00:21:37;;;;;;;6.43;5.10;;;;;;;;;;5072517;28;20731;-54
2023/07/14 00:24:11;;;;;;;6.40;4.70;;;;;;;;;;5072578;28;20191;-54
2023/07/14 00:26:37;;;;;;;6.43;4.70;;;;;;;;;;5072568;28;20665;-54
2023/07/14 00:29:05;;;;;;;5.67;4.97;;;;;;;;;;5072502;28;20627;-54
2023/07/14 00:31:31;;;;;;;6.67;5.40;;;;;;;;;;5072476;28;20196;-54
2023/07/14 00:33:58;;;;;;;5.90;5.40;;;;;;;;;;5072518;28;20743;-54
2023/07/14 00:36:24;;;;;;;6.73;5.40;;;;;;;;;;5072450;28;20199;-55
2023/07/14 00:38:50;;;;;;;8.23;5.90;;;;;;;;;;5072082;28;20324;-54
2023/07/14 00:41:19;;;;;;;7.90;5.67;;;;;;;;;;5072087;28;20249;-54
2023/07/14 00:43:46;;;;;;;6.83;6.20;;;;;;;;;;5072156;28;20263;-54
2023/07/14 00:46:18;;;;;;;6.23;5.60;;;;;;;;;;5072192;28;20269;-54
2023/07/14 00:48:44;;;;;;;7.17;6.20;;;;;;;;;;5072059;28;20552;-54
2023/07/14 00:51:12;;;;;;;6.87;6.37;;;;;;;;;;5072168;28;20203;-55
2023/07/14 00:53:39;;;;;;;8.03;6.40;;;;;;;;;;5072068;28;20232;-55
2023/07/14 00:56:25;;;;;;;7.93;7.13;;;;;;;;;;5071990;28;20202;-55
2023/07/14 00:58:51;;;;;;;8.93;6.47;;;;;;;;;;5072118;28;20215;-55
2023/07/14 01:01:25;;;;;;;7.10;6.50;;;;;;;;;;5072047;28;20199;-55
2023/07/14 01:03:52;;;;;;;7.27;6.57;;;;;;;;;;5072015;28;20283;-55
2023/07/14 01:06:19;;;;;;;6.87;6.20;;;;;;;;;;5071791;28;20303;-55
2023/07/14 01:08:47;;;;;;;6.90;5.80;;;;;;;;;;5071917;28;20203;-55
2023/07/14 01:11:15;;;;;;;7.77;5.83;;;;;;;;;;5071857;28;20252;-54
2023/07/14 01:13:43;;;;;;;11.33;6.50;;;;;;;;;;5071858;28;20222;-55
2023/07/14 01:16:09;;;;;;;6.63;6.10;;;;;;;;;;5072052;28;20215;-55
2023/07/14 01:18:36;;;;;;;8.13;6.70;;;;;;;;;;5071701;28;20642;-55
2023/07/14 01:21:02;;;;;;;11.67;7.73;;;;;;;;;;5071738;28;20278;-55
2023/07/14 01:23:46;;;;;;;8.80;6.10;;;;;;;;;;5071638;28;20203;-55
2023/07/14 01:26:19;;;;;;;8.73;6.80;;;;;;;;;;5071765;28;20227;-55
2023/07/14 01:28:47;;;;;;;7.30;6.57;;;;;;;;;;5071551;28;20200;-55
2023/07/14 01:31:16;;;;;;;8.07;7.30;;;;;;;;;;5071652;28;20207;-55
2023/07/14 01:33:42;;;;;;;7.27;6.47;;;;;;;;;;5071811;28;20676;-55
2023/07/14 01:36:08;;;;;;;8.10;7.30;;;;;;;;;;5071796;28;20191;-55
2023/07/14 01:38:34;;;;;;;7.97;7.17;;;;;;;;;;5071526;28;20196;-55
2023/07/14 01:41:01;;;;;;;9.33;7.30;;;;;;;;;;5071626;28;20286;-55
2023/07/14 01:43:27;;;;;;;8.77;7.87;;;;;;;;;;5071325;28;20277;-55
2023/07/14 01:45:56;;;;;;;7.57;6.93;;;;;;;;;;5071444;28;20693;-55
2023/07/14 01:48:25;;;;;;;8.60;7.63;;;;;;;;;;5071388;28;20693;-55
2023/07/14 01:50:53;;;;;;;9.43;8.43;;;;;;;;;;5074035;28;20282;-55
2023/07/14 01:53:22;;;;;;;11.50;8.87;;;;;;;;;;5075442;28;20286;-55
2023/07/14 01:55:50;;;;;;;9.03;8.13;;;;;;;;;;5075468;28;20646;-55
2023/07/14 01:58:19;;;;;;;9.37;8.50;;;;;;;;;;5075337;28;20241;-55
2023/07/14 02:00:46;;;;;;;10.83;9.67;;;;;;;;;;5075335;28;20192;-55
2023/07/14 02:03:17;;;;;;;11.20;10.07;;;;;;;;;;5075455;28;20256;-55
2023/07/14 02:05:43;;;;;;;11.80;10.63;;;;;;;;;;5075117;28;20235;-55
2023/07/14 02:08:12;;;;;;;13.57;11.37;;;;;;;;;;5075414;28;20215;-55
2023/07/14 02:10:38;;;;;;;13.63;12.20;;;;;;;;;;5075186;28;20235;-55
2023/07/14 02:13:08;;;;;;;14.07;12.00;;;;;;;;;;5075090;28;20205;-54
2023/07/14 02:15:34;;;;;;;13.60;12.30;;;;;;;;;;5074980;28;20195;-55
2023/07/14 02:18:01;;;;;;;16.50;13.07;;;;;;;;;;5075115;28;20252;-54
2023/07/14 02:20:30;;;;;;;15.20;13.10;;;;;;;;;;5074922;28;20202;-55
2023/07/14 02:22:58;;;;;;;13.80;12.47;;;;;;;;;;5075144;28;20634;-54
2023/07/14 02:25:27;;;;;;;14.30;13.00;;;;;;;;;;5074685;28;20593;-55
2023/07/14 02:27:53;;;;;;;16.00;12.90;;;;;;;;;;5075042;28;20253;-54
2023/07/14 02:30:20;;;;;;;14.00;12.33;;;;;;;;;;5074867;28;20180;-54
2023/07/14 02:32:48;;;;;;;15.07;12.50;;;;;;;;;;5074898;28;20202;-55
2023/07/14 02:35:19;;;;;;;14.40;12.83;;;;;;;;;;5074935;28;20665;-55
2023/07/14 02:38:03;;;;;;;15.40;13.23;;;;;;;;;;5074743;28;20196;-54
2023/07/14 02:40:29;;;;;;;14.13;12.83;;;;;;;;;;5074475;28;20210;-54
2023/07/14 02:42:56;;;;;;;13.80;12.40;;;;;;;;;;5074127;28;20231;-55
2023/07/14 02:45:23;;;;;;;16.67;13.90;;;;;;;;;;5073659;28;20223;-54
2023/07/14 02:47:50;;;;;;;14.17;12.70;;;;;;;;;;5073326;28;20198;-55
2023/07/14 02:50:16;;;;;;;14.17;12.70;;;;;;;;;;5073286;28;20198;-55
2023/07/14 02:52:42;;;;;;;14.47;12.63;;;;;;;;;;5073293;28;20283;-54
2023/07/14 02:55:10;;;;;;;16.30;12.53;;;;;;;;;;5073355;28;20734;-55
2023/07/14 02:57:36;;;;;;;16.20;13.20;;;;;;;;;;5073153;28;20572;-54
2023/07/14 03:00:07;;;;;;;14.03;12.63;;;;;;;;;;5073137;28;20708;-54
2023/07/14 03:02:33;;;;;;;16.23;13.50;;;;;;;;;;5072673;28;20800;-55
2023/07/14 03:04:59;;;;;;;14.80;13.30;;;;;;;;;;5072855;28;20721;-54
2023/07/14 03:07:25;;;;;;;15.03;13.53;;;;;;;;;;5072965;28;20666;-55
2023/07/14 03:09:51;;;;;;;17.60;14.67;;;;;;;;;;5073121;28;20206;-55
2023/07/14 03:12:19;;;;;;;15.83;13.67;;;;;;;;;;5072863;28;20681;-55
2023/07/14 03:14:45;;;;;;;14.77;13.37;;;;;;;;;;5072639;28;20226;-54
2023/07/14 03:17:12;;;;;;;14.10;12.80;;;;;;;;;;5072965;28;20231;-55
2023/07/14 03:19:38;;;;;;;14.57;12.97;;;;;;;;;;5072721;28;20211;-54
2023/07/14 03:22:04;;;;;;;14.10;12.70;;;;;;;;;;5072234;28;20202;-54
2023/07/14 03:24:30;;;;;;;13.40;12.00;;;;;;;;;;5072376;28;20697;-55
2023/07/14 03:26:56;;;;;;;14.17;11.83;;;;;;;;;;5072898;28;20253;-54
2023/07/14 03:29:23;;;;;;;13.80;12.20;;;;;;;;;;5072701;28;20245;-55
2023/07/14 03:31:49;;;;;;;15.40;13.80;;;;;;;;;;5072318;28;20570;-54
2023/07/14 03:34:16;;;;;;;17.37;14.23;;;;;;;;;;5072685;28;20207;-54
2023/07/14 03:36:42;;;;;;;14.37;12.97;;;;;;;;;;5072860;28;20200;-55
2023/07/14 03:39:19;;;;;;;15.23;13.73;;;;;;;;;;5072607;28;20688;-55
2023/07/14 03:41:45;;;;;;;17.87;14.27;;;;;;;;;;5072590;28;20694;-55
2023/07/14 03:44:11;;;;;;;16.17;13.17;;;;;;;;;;5036889;28;1035981;-54
2023/07/14 03:46:39;;;;;;;14.77;13.30;;;;;;;;;;5073359;28;20242;-54
2023/07/14 03:49:05;;;;;;;14.53;13.03;;;;;;;;;;5073477;28;20654;-54
2023/07/14 03:51:31;;;;;;;15.17;13.67;;;;;;;;;;5073175;28;20725;-54
2023/07/14 03:53:57;;;;;;;16.40;14.60;;;;;;;;;;5073335;28;20283;-54
2023/07/14 03:56:23;;;;;;;13.47;12.07;;;;;;;;;;5073163;28;20195;-54
2023/07/14 03:58:49;;;;;;;14.60;13.20;;;;;;;;;;5073100;28;20249;-54
2023/07/14 04:01:15;;;;;;;14.03;12.50;;;;;;;;;;5073065;28;20253;-54
2023/07/14 04:03:42;;;;;;;16.27;12.90;;;;;;;;;;5071742;28;20203;-54
2023/07/14 04:06:08;;;;;;;13.53;12.03;;;;;;;;;;5073050;28;20228;-54
2023/07/14 04:08:37;;;;;;;14.40;12.93;;;;;;;;;;5072856;28;20291;-55
2023/07/14 04:11:04;;;;;;;14.30;12.77;;;;;;;;;;5072992;28;20234;-54
2023/07/14 04:13:30;;;;;;;16.50;12.33;;;;;;;;;;5071948;28;20208;-54
2023/07/14 04:15:56;;;;;;;13.40;12.00;;;;;;;;;;5072913;28;20191;-54
2023/07/14 04:18:22;;;;;;;12.40;11.20;;;;;;;;;;5072748;28;20612;-54
2023/07/14 04:20:50;;;;;;;13.37;12.17;;;;;;;;;;5072786;28;20203;-54
2023/07/14 04:23:19;;;;;;;13.37;11.93;;;;;;;;;;5072549;28;20199;-54
2023/07/14 04:25:45;;;;;;;12.33;11.20;;;;;;;;;;5072459;28;20234;-55
2023/07/14 04:28:11;;;;;;;12.37;11.07;;;;;;;;;;5072564;28;20204;-54
2023/07/14 04:30:37;;;;;;;11.67;10.63;;;;;;;;;;5072612;28;20203;-54
2023/07/14 04:33:04;;;;;;;13.90;12.50;;;;;;;;;;5072501;28;20234;-54
2023/07/14 04:35:30;;;;;;;12.63;11.43;;;;;;;;;;5072258;28;20696;-54
2023/07/14 04:37:58;;;;;;;11.53;10.33;;;;;;;;;;5072531;28;20200;-54
2023/07/14 04:40:24;;;;;;;13.17;11.10;;;;;;;;;;5072305;28;20678;-55
2023/07/14 04:42:50;;;;;;;12.47;11.20;;;;;;;;;;5072183;28;20231;-55
2023/07/14 04:45:17;;;;;;;13.70;11.30;;;;;;;;;;5072155;28;20284;-55
2023/07/14 04:47:43;;;;;;;12.17;10.97;;;;;;;;;;5072419;28;20218;-55
2023/07/14 04:50:10;;;;;;;13.20;10.80;;;;;;;;;;5072269;28;20196;-54
2023/07/14 04:52:36;;;;;;;12.13;10.93;;;;;;;;;;5072034;28;20199;-55
2023/07/14 04:55:03;;;;;;;12.00;10.50;;;;;;;;;;5072150;28;20198;-55
2023/07/14 04:57:29;;;;;;;11.20;9.20;;;;;;;;;;5071883;28;20200;-55
2023/07/14 04:59:58;;;;;;;11.20;10.10;;;;;;;;;;5072171;28;20300;-55
2023/07/14 05:02:24;;;;;;;10.60;9.63;;;;;;;;;;5071969;28;20226;-54
2023/07/14 05:05:10;;;;;;;10.23;9.23;;;;;;;;;;5071890;28;20231;-55
2023/07/14 05:07:36;;;;;;;11.30;9.80;;;;;;;;;;5071871;28;20199;-54
2023/07/14 05:10:04;;;;;;;13.97;10.43;;;;;;;;;;5071889;28;20230;-55
2023/07/14 05:12:30;;;;;;;11.13;9.97;;;;;;;;;;5071752;28;20203;-55
2023/07/14 05:14:56;;;;;;;12.97;9.97;;;;;;;;;;5071759;28;20195;-55
2023/07/14 05:17:22;;;;;;;12.10;9.70;;;;;;;;;;5071816;28;20256;-55
2023/07/14 05:19:48;;;;;;;11.13;9.97;;;;;;;;;;5071756;28;20199;-55
2023/07/14 05:22:14;;;;;;;12.63;9.60;;;;;;;;;;5071761;28;20245;-54
2023/07/14 05:24:40;;;;;;;9.47;8.57;;;;;;;;;;5071543;28;20604;-54
2023/07/14 05:27:07;;;;;;;10.10;9.20;;;;;;;;;;5071711;28;20200;-54
2023/07/14 05:29:33;;;;;;;10.33;9.23;;;;;;;;;;5071523;28;20206;-54
2023/07/14 05:31:59;;;;;;;10.67;9.23;;;;;;;;;;5071577;28;20199;-55
2023/07/14 05:34:25;;;;;;;11.60;8.80;;;;;;;;;;5071633;28;20203;-54
2023/07/14 05:36:51;;;;;;;9.30;8.10;;;;;;;;;;5071474;28;20269;-54
2023/07/14 05:39:17;;;;;;;9.47;8.47;;;;;;;;;;5071679;28;20249;-54
2023/07/14 05:41:43;;;;;;;9.20;8.30;;;;;;;;;;5071442;28;20632;-54
2023/07/14 05:44:10;;;;;;;11.47;8.10;;;;;;;;;;5071421;28;20326;-54
2023/07/14 05:46:37;;;;;;;9.33;8.43;;;;;;;;;;5071335;28;20227;-54
2023/07/14 05:49:03;;;;;;;9.03;8.17;;;;;;;;;;5071351;28;20234;-54
2023/07/14 05:51:29;;;;;;;11.23;9.27;;;;;;;;;;5071325;28;20234;-54
2023/07/14 05:53:55;;;;;;;10.20;8.37;;;;;;;;;;5071625;28;20284;-54
2023/07/14 05:56:22;;;;;;;10.87;7.93;;;;;;;;;;5071383;28;20288;-54
2023/07/14 05:58:48;;;;;;;9.27;8.13;;;;;;;;;;5071365;28;20249;-54
2023/07/14 06:01:15;;;;;;;10.07;8.10;;;;;;;;;;5071295;28;20199;-54
2023/07/14 06:03:41;;;;;;;8.77;7.90;;;;;;;;;;5071296;28;20249;-54
2023/07/14 06:06:08;;;;;;;8.67;7.63;;;;;;;;;;5071164;28;20593;-54
2023/07/14 06:08:34;;;;;;;8.90;8.00;;;;;;;;;;5071273;28;20188;-53
2023/07/14 06:11:00;;;;;;;9.07;7.27;;;;;;;;;;5071428;28;20203;-54
2023/07/14 06:13:26;;;;;;;10.17;7.60;;;;;;;;;;5071440;28;20223;-54
2023/07/14 06:15:52;;;;;;;9.33;6.63;;;;;;;;;;5071146;28;20230;-55
2023/07/14 06:18:20;;;;;;;9.13;7.37;;;;;;;;;;5071040;28;20196;-54
2023/07/14 06:20:46;;;;;;;8.07;7.00;;;;;;;;;;5070994;28;20578;-53
2023/07/14 06:23:12;;;;;;;10.07;7.37;;;;;;;;;;5070889;28;20658;-54
2023/07/14 06:25:38;;;;;;;9.80;7.33;;;;;;;;;;5071143;28;20326;-54
2023/07/14 06:28:04;;;;;;;8.67;7.83;;;;;;;;;;5071067;28;20188;-54
2023/07/14 06:30:30;;;;;;;8.03;6.33;;;;;;;;;;5071030;28;20670;-55
2023/07/14 06:32:56;;;;;;;8.57;7.57;;;;;;;;;;5070941;28;20660;-53
2023/07/14 06:35:24;;;;;;;11.37;6.73;;;;;;;;;;5071027;28;20341;-52
2023/07/14 06:37:50;;;;;;;7.80;6.83;;;;;;;;;;5074527;28;20196;-53
2023/07/14 06:40:17;;;;;;;8.13;6.77;;;;;;;;;;5074677;28;20246;-53
2023/07/14 06:42:43;;;;;;;7.57;6.00;;;;;;;;;;5074261;28;20248;-53
2023/07/14 06:45:09;;;;;;;7.87;6.27;;;;;;;;;;5074665;28;20237;-54
2023/07/14 06:47:35;;;;;;;7.27;6.50;;;;;;;;;;5074554;28;20355;-54
2023/07/14 06:50:03;;;;;;;13.13;7.20;;;;;;;;;;5074533;28;20204;-54
2023/07/14 06:52:30;;;;;;;8.17;6.30;;;;;;;;;;5074316;28;20210;-55
2023/07/14 06:54:57;;;;;;;8.47;6.43;;;;;;;;;;5074479;28;20258;-54
2023/07/14 06:57:23;;;;;;;9.50;6.87;;;;;;;;;;5074540;28;20563;-55
2023/07/14 06:59:49;;;;;;;6.97;5.50;;;;;;;;;;5074041;28;20689;-55
2023/07/14 07:02:15;;;;;;;7.63;5.50;;;;;;;;;;5074176;28;20210;-55
2023/07/14 07:04:41;;;;;;;8.50;6.20;;;;;;;;;;5074198;28;20227;-55
2023/07/14 07:07:07;;;;;;;6.27;5.10;;;;;;;;;;5074197;28;20203;-53
2023/07/14 07:09:35;;;;;;;5.70;5.10;;;;;;;;;;5074042;28;20573;-52
2023/07/14 07:12:01;;;;;;;5.73;5.20;;;;;;;;;;5074067;28;20201;-54
2023/07/14 07:14:28;;;;;;;7.00;4.60;;;;;;;;;;5073991;28;20668;-52
2023/07/14 07:16:54;;;;;;;9.00;4.77;;;;;;;;;;5074233;28;20206;-49
2023/07/14 07:19:20;;;;;;;4.97;3.97;;;;;;;;;;5074229;28;20202;-49
2023/07/14 07:21:46;;;;;;;5.50;4.27;;;;;;;;;;5074036;28;20285;-51
2023/07/14 07:24:13;;;;;;;6.93;3.40;;;;;;;;;;5074023;28;20283;-52
2023/07/14 07:26:40;;;;;;;3.93;3.53;;;;;;;;;;5071849;28;20235;-51
2023/07/14 07:29:06;;;;;;;4.83;3.13;;;;;;;;;;5073571;28;20205;-50
2023/07/14 07:31:32;;;;;;;4.10;2.90;;;;;;;;;;5073303;28;20195;-51
2023/07/14 07:33:58;;;;;;;6.47;2.63;;;;;;;;;;5073489;28;20199;-51
2023/07/14 07:36:27;;;;;;;4.83;2.80;;;;;;;;;;5073510;28;20282;-51
2023/07/14 07:38:53;;;;;;;5.00;2.57;;;;;;;;;;5073577;28;20207;-52
2023/07/14 07:41:20;;;;;;;3.60;2.77;;;;;;;;;;5073335;28;20204;-51
2023/07/14 07:43:48;;;;;;;4.77;2.90;;;;;;;;;;5072978;28;20778;-51
2023/07/14 07:46:14;;;;;;;3.63;2.00;;;;;;;;;;5073157;28;20235;-51
2023/07/14 07:48:42;;;;;;;5.23;2.50;;;;;;;;;;5072032;28;20195;-51
2023/07/14 07:51:08;;;;;;;4.33;2.40;;;;;;;;;;5073364;28;20288;-51
2023/07/14 07:53:34;;;;;;;3.60;2.30;;;;;;;;;;5072944;28;20210;-51
2023/07/14 07:56:01;;;;;;;3.50;2.33;;;;;;;;;;5073001;28;20191;-52
2023/07/14 07:58:27;;;;;;;4.07;2.47;;;;;;;;;;5072923;28;20193;-50
2023/07/14 08:00:55;;;;;;;4.67;2.50;;;;;;;;;;5072763;28;20555;-51
2023/07/14 08:03:21;;;;;;;8.50;2.90;;;;;;;;;;5072828;28;20203;-52
2023/07/14 08:05:47;;;;;;;4.43;2.33;;;;;;;;;;5072451;28;20690;-51
2023/07/14 08:08:13;;;;;;;5.17;2.60;;;;;;;;;;5072838;28;20202;-52
2023/07/14 08:10:41;;;;;;;2.80;2.47;;;;;;;;;;5072651;28;20570;-51
2023/07/14 08:13:08;;;;;;;4.53;2.80;;;;;;;;;;5072562;28;20611;-53
2023/07/14 08:15:37;;;;;;;3.03;2.70;;;;;;;;;;5072413;28;20577;-52
2023/07/14 08:18:06;;;;;;;3.77;2.60;;;;;;;;;;5072644;28;20214;-51
2023/07/14 08:20:32;;;;;;;5.13;2.37;;;;;;;;;;5072396;28;20215;-52
2023/07/14 08:22:58;;;;;;;3.27;2.40;;;;;;;;;;5072354;28;20693;-51
2023/07/14 08:25:24;;;;;;;6.10;2.90;;;;;;;;;;5072396;28;20259;-51
2023/07/14 08:27:50;;;;;;;3.60;2.43;;;;;;;;;;5072272;28;20192;-51
2023/07/14 08:30:16;;;;;;;4.40;2.40;;;;;;;;;;5072222;28;20201;-52
2023/07/14 08:32:42;;;;;;;2.57;2.30;;;;;;;;;;5072379;28;20625;-52
2023/07/14 08:35:10;;;;;;;2.73;2.40;;;;;;;;;;5072674;28;20238;-52
2023/07/14 08:37:36;;;;;;;4.07;2.63;;;;;;;;;;5072300;28;20216;-52
2023/07/14 08:40:02;;;;;;;3.27;2.30;;;;;;;;;;5072303;28;20486;-52
2023/07/14 08:42:34;;;;;;;2.63;2.30;;;;;;;;;;5072287;28;20227;-51
2023/07/14 08:45:07;;;;;;;3.90;2.50;;;;;;;;;;5072586;28;20228;-51
2023/07/14 08:47:37;;;;;;;3.50;2.40;;;;;;;;;;5072498;28;20195;-51
2023/07/14 08:50:04;;;;;;;4.57;2.67;;;;;;;;;;5072436;28;20270;-52
2023/07/14 08:52:33;;;;;;;3.90;2.23;;;;;;;;;;5072044;28;20200;-51
2023/07/14 08:55:03;;;;;;;3.17;2.30;;;;;;;;;;5072192;28;20738;-52
2023/07/14 08:57:29;;;;;;;5.97;2.60;;;;;;;;;;5072360;28;20269;-52
2023/07/14 08:59:57;;;;;;;3.20;2.10;;;;;;;;;;5071916;28;20287;-52
2023/07/14 09:02:26;;;;;;;4.97;2.50;;;;;;;;;;5072309;28;20201;-52
2023/07/14 09:04:56;;;;;;;3.80;2.50;;;;;;;;;;5071910;28;20714;-52
2023/07/14 09:07:22;;;;;;;3.80;2.60;;;;;;;;;;5072275;28;20578;-53
2023/07/14 09:09:50;;;;;;;3.57;2.53;;;;;;;;;;5072015;28;20739;-52
2023/07/14 09:12:19;;;;;;;4.20;2.13;;;;;;;;;;5072043;28;21002;-53
2023/07/14 09:14:52;;;;;;;8.40;2.73;;;;;;;;;;5072015;28;20201;-53
2023/07/14 09:17:22;;;;;;;4.17;2.80;;;;;;;;;;5071963;28;20279;-52
2023/07/14 09:20:07;;;;;;;3.30;2.30;;;;;;;;;;5071874;28;20207;-52
2023/07/14 09:22:38;;;;;;;3.87;2.40;;;;;;;;;;5071838;28;20199;-53
2023/07/14 09:25:10;;;;;;;3.37;2.13;;;;;;;;;;5071692;28;20717;-52
2023/07/14 09:27:36;;;;;;;2.50;2.20;;;;;;;;;;5071755;28;20690;-53
2023/07/14 09:30:10;;;;;;;3.47;2.07;;;;;;;;;;5072036;28;20294;-51
2023/07/14 09:32:39;;;;;;;5.60;2.37;;;;;;;;;;5071675;28;20290;-49
2023/07/14 09:35:12;;;;;;;3.50;2.77;;;;;;;;;;5071782;28;20659;-49
2023/07/14 09:37:43;;;;;;;6.20;2.60;;;;;;;;;;5071953;28;20212;-51
2023/07/14 09:40:17;;;;;;;4.43;2.77;;;;;;;;;;5071772;28;20675;-51
2023/07/14 09:42:45;;;;;;;4.57;2.30;;;;;;;;;;5071554;28;20343;-52
2023/07/14 09:45:14;;;;;;;4.17;2.30;;;;;;;;;;5071736;28;20269;-49
2023/07/14 09:47:42;;;;;;;5.80;2.17;;;;;;;;;;5071601;28;20652;-51
2023/07/14 09:50:11;;;;;;;5.00;2.87;;;;;;;;;;5065178;28;20214;-52
2023/07/14 09:52:48;;;;;;;3.47;2.33;;;;;;;;;;5071337;28;20271;-51
2023/07/14 09:55:15;;;;;;;5.07;2.33;;;;;;;;;;5071712;28;20204;-51
2023/07/14 09:57:43;;;;;;;3.30;2.10;;;;;;;;;;5071201;28;20208;-50
2023/07/14 10:00:18;;;;;;;4.10;2.30;;;;;;;;;;5071463;28;20204;-50
2023/07/14 10:02:44;;;;;;;5.50;2.50;;;;;;;;;;5070996;28;20611;-53
2023/07/14 10:05:34;;;;;;;2.97;2.00;;;;;;;;;;5056932;28;20578;-51
2023/07/14 10:08:03;;;;;;;4.40;2.30;;;;;;;;;;5047780;28;20241;-52
2023/07/14 10:10:33;;;;;;;5.93;2.50;;;;;;;;;;5051498;28;20712;-53
2023/07/14 10:13:08;;;;;;;3.43;2.10;;;;;;;;;;5055218;28;20205;-53
2023/07/14 10:15:36;;;;;;;5.23;2.10;;;;;;;;;;5055330;28;20206;-52
2023/07/14 10:18:04;;;;;;;3.90;2.10;;;;;;;;;;5055311;28;20233;-52
2023/07/14 10:20:31;;;;;;;5.13;2.53;;;;;;;;;;5055060;28;20204;-53
2023/07/14 10:22:58;;;;;;;6.00;2.33;;;;;;;;;;5055183;28;20257;-53
2023/07/14 10:25:25;;;;;;;3.23;2.13;;;;;;;;;;5055205;28;20231;-53
2023/07/14 10:28:00;;;;;;;3.83;2.23;;;;;;;;;;5055002;28;20197;-52
2023/07/14 10:30:35;;;;;;;3.57;2.20;;;;;;;;;;5054920;28;20571;-53
2023/07/14 10:33:01;;;;;;;2.50;2.03;;;;;;;;;;5054939;28;20742;-53
2023/07/14 10:35:28;;;;;;;3.87;2.43;;;;;;;;;;5055016;28;20273;-53
2023/07/14 10:37:56;;;;;;;5.20;2.40;;;;;;;;;;5054964;28;20200;-53
2023/07/14 10:40:24;;;;;;;4.07;2.40;;;;;;;;;;5054879;28;20228;-51
2023/07/14 10:42:53;;;;;;;8.53;2.70;;;;;;;;;;5054481;28;20262;-52
2023/07/14 10:45:20;;;;;;;8.90;2.63;;;;;;;;;;5054870;28;20324;-51
2023/07/14 10:47:49;;;;;;;3.53;2.23;;;;;;;;;;5054607;28;20201;-51
2023/07/14 10:50:17;;;;;;;3.80;2.27;;;;;;;;;;5054534;28;20244;-52
2023/07/14 10:52:46;;;;;;;3.80;2.23;;;;;;;;;;5054361;28;20668;-52
2023/07/14 10:55:16;;;;;;;3.53;1.93;;;;;;;;;;5054469;28;20198;-51
2023/07/14 10:57:44;;;;;;;6.43;2.43;;;;;;;;;;5054306;28;20206;-52
2023/07/14 11:00:19;;;;;;;3.60;2.40;;;;;;;;;;5054465;28;20249;-53
2023/07/14 11:02:50;;;;;;;4.27;2.40;;;;;;;;;;5054138;28;20652;-51
2023/07/14 11:05:17;;;;;;;3.70;2.33;;;;;;;;;;5054238;28;20242;-52
2023/07/14 11:07:43;;;;;;;3.07;2.40;;;;;;;;;;5054005;28;20261;-52
2023/07/14 11:10:13;;;;;;;3.67;2.53;;;;;;;;;;5054321;28;20199;-51
2023/07/14 11:12:44;;;;;;;2.97;2.33;;;;;;;;;;5054081;28;20201;-52
2023/07/14 11:15:18;;;;;;;6.17;2.60;;;;;;;;;;5054306;28;20545;-51
2023/07/14 11:17:51;;;;;;;4.30;2.23;;;;;;;;;;5053971;28;20212;-51
2023/07/14 11:20:20;;;;;;;3.43;2.10;;;;;;;;;;5053842;28;20663;-52
2023/07/14 11:23:07;;;;;;;3.00;2.47;;;;;;;;;;5053496;28;20209;-52
2023/07/14 11:25:38;;;;;;;2.90;2.20;;;;;;;;;;5048577;28;20231;-53
2023/07/14 11:28:13;;;;;;;4.07;2.37;;;;;;;;;;5053682;28;20628;-51
2023/07/14 11:30:41;;;;;;;4.63;2.40;;;;;;;;;;5054073;28;20204;-53
2023/07/14 11:33:11;;;;;;;5.90;2.20;;;;;;;;;;5053722;28;20208;-52
2023/07/14 11:35:44;;;;;;;3.60;2.13;;;;;;;;;;5053647;28;20189;-53
2023/07/14 11:38:16;;;;;;;4.10;2.60;;;;;;;;;;5053848;28;20198;-51
2023/07/14 11:40:44;;;;;;;3.17;2.27;;;;;;;;;;5053560;28;20231;-53
2023/07/14 11:43:12;;;;;;;2.90;2.20;;;;;;;;;;5053454;28;20671;-52
2023/07/14 11:45:39;;;;;;;3.00;2.17;;;;;;;;;;5053332;28;20226;-52
2023/07/14 11:48:06;;;;;;;3.23;2.40;;;;;;;;;;5053432;28;20215;-52
2023/07/14 11:50:33;;;;;;;6.50;2.20;;;;;;;;;;5053130;28;20225;-53
2023/07/14 11:53:10;;;;;;;3.97;2.20;;;;;;;;;;5053309;28;20200;-53
2023/07/14 11:55:38;;;;;;;2.83;2.23;;;;;;;;;;5053296;28;20198;-52
2023/07/14 11:58:11;;;;;;;4.67;2.40;;;;;;;;;;5053225;28;20208;-52
2023/07/14 12:00:38;;;;;;;3.73;2.50;;;;;;;;;;5053129;28;20538;-52
2023/07/14 12:03:09;;;;;;;4.17;2.90;;;;;;;;;;5053236;28;20211;-52
2023/07/14 12:05:37;;;;;;;4.30;2.80;;;;;;;;;;5052763;28;20315;-51
2023/07/14 12:08:10;;;;;;;3.63;2.63;;;;;;;;;;5052984;28;20506;-52
2023/07/14 12:10:45;;;;;;;2.83;2.40;;;;;;;;;;5052986;28;20575;-53
2023/07/14 12:13:13;;;;;;;4.17;2.70;;;;;;;;;;5053013;28;20194;-50
2023/07/14 12:15:42;;;;;;;5.33;2.47;;;;;;;;;;5052829;28;20550;-50
2023/07/14 12:18:18;;;;;;;4.73;2.60;;;;;;;;;;5052895;28;20267;-50
2023/07/14 12:20:45;;;;;;;4.23;2.87;;;;;;;;;;5052293;28;20203;-52
2023/07/14 12:23:14;;;;;;;3.87;2.77;;;;;;;;;;5052705;28;20666;-50
2023/07/14 12:25:41;;;;;;;3.10;2.80;;;;;;;;;;5052353;28;20259;-51
2023/07/14 12:28:12;;;;;;;3.10;2.40;;;;;;;;;;5052584;28;20205;-50
2023/07/14 12:30:38;;;;;;;5.90;2.37;;;;;;;;;;5052585;28;20589;-50
2023/07/14 12:33:13;;;;;;;3.73;2.70;;;;;;;;;;5052117;28;20285;-51
2023/07/14 12:35:39;;;;;;;6.07;2.50;;;;;;;;;;5052361;28;20194;-52
2023/07/14 12:38:09;;;;;;;3.13;2.70;;;;;;;;;;5052341;28;20196;-52
2023/07/14 12:40:37;;;;;;;3.97;2.70;;;;;;;;;;5052293;28;20204;-51
2023/07/14 12:43:04;;;;;;;3.90;3.00;;;;;;;;;;5052200;28;20503;-50
2023/07/14 12:45:30;;;;;;;4.30;2.80;;;;;;;;;;5052157;28;20588;-50
2023/07/14 12:47:58;;;;;;;4.03;2.80;;;;;;;;;;5052179;28;20205;-50
2023/07/14 12:50:26;;;;;;;3.47;2.73;;;;;;;;;;5052283;28;20194;-52
2023/07/14 12:52:52;;;;;;;5.07;2.90;;;;;;;;;;5051264;28;20218;-50
2023/07/14 12:55:20;;;;;;;5.03;3.10;;;;;;;;;;5050160;28;20254;-51
2023/07/14 12:57:48;;;;;;;4.90;2.57;;;;;;;;;;5051823;28;20202;-50
2023/07/14 13:00:19;;;;;;;3.33;2.50;;;;;;;;;;5051449;28;20203;-51
2023/07/14 13:02:45;;;;;;;3.20;2.70;;;;;;;;;;5051788;28;20198;-52
2023/07/14 13:05:12;;;;;;;3.40;2.80;;;;;;;;;;5051924;28;20291;-51
2023/07/14 13:07:39;;;;;;;4.17;2.87;;;;;;;;;;5051699;28;20199;-51
2023/07/14 13:10:10;;;;;;;5.03;2.80;;;;;;;;;;5051934;28;20192;-52
2023/07/14 13:12:36;;;;;;;2.87;2.57;;;;;;;;;;5051392;28;20203;-53
2023/07/14 13:15:04;;;;;;;4.30;2.70;;;;;;;;;;5051869;28;20312;-51
2023/07/14 13:17:30;;;;;;;3.87;2.80;;;;;;;;;;5051731;28;20204;-51
2023/07/14 13:20:07;;;;;;;3.17;2.50;;;;;;;;;;5051468;28;20210;-52
2023/07/14 13:22:36;;;;;;;3.50;2.83;;;;;;;;;;5051769;28;20202;-52
2023/07/14 13:25:04;;;;;;;7.27;2.93;;;;;;;;;;5051347;28;20193;-52
2023/07/14 13:27:31;;;;;;;5.30;2.90;;;;;;;;;;5051515;28;20227;-50
2023/07/14 13:29:58;;;;;;;3.87;2.70;;;;;;;;;;5051589;28;20269;-53
2023/07/14 13:32:26;;;;;;;2.90;2.60;;;;;;;;;;5051650;28;20212;-50
2023/07/14 13:34:53;;;;;;;3.47;2.67;;;;;;;;;;5051440;28;20209;-50
2023/07/14 13:37:20;;;;;;;3.10;2.80;;;;;;;;;;5051172;28;20193;-51
2023/07/14 13:39:53;;;;;;;5.50;3.07;;;;;;;;;;5051393;28;20587;-50
2023/07/14 13:42:23;;;;;;;4.73;2.77;;;;;;;;;;5051139;28;20334;-50
2023/07/14 13:44:49;;;;;;;5.07;3.00;;;;;;;;;;5051895;28;20200;-50
2023/07/14 13:47:17;;;;;;;5.43;2.63;;;;;;;;;;5055385;28;20401;-51
2023/07/14 13:49:45;;;;;;;4.37;3.20;;;;;;;;;;5055048;28;20239;-51
2023/07/14 13:52:13;;;;;;;3.93;2.83;;;;;;;;;;5055509;28;20279;-51
2023/07/14 13:54:40;;;;;;;2.90;2.30;;;;;;;;;;5055319;28;20243;-51
2023/07/14 13:57:09;;;;;;;3.03;2.70;;;;;;;;;;5055409;28;20205;-52
2023/07/14 13:59:35;;;;;;;3.83;2.70;;;;;;;;;;5055438;28;20291;-52
2023/07/14 14:02:02;;;;;;;4.53;2.70;;;;;;;;;;5055170;28;20467;-51
2023/07/14 14:04:28;;;;;;;4.07;2.83;;;;;;;;;;5055262;28;20199;-52
2023/07/14 14:06:55;;;;;;;3.10;2.53;;;;;;;;;;5055137;28;20230;-52
2023/07/14 14:09:21;;;;;;;3.23;2.90;;;;;;;;;;5055203;28;20212;-50
2023/07/14 14:11:48;;;;;;;4.47;2.67;;;;;;;;;;5054913;28;20200;-51
2023/07/14 14:14:14;;;;;;;3.13;2.57;;;;;;;;;;5054592;28;20200;-52
2023/07/14 14:16:40;;;;;;;4.63;2.90;;;;;;;;;;5055052;28;20639;-51
2023/07/14 14:19:09;;;;;;;3.00;2.63;;;;;;;;;;5054921;28;20695;-51
2023/07/14 14:21:35;;;;;;;5.13;2.77;;;;;;;;;;5054841;28;20738;-52
2023/07/14 14:24:03;;;;;;;3.50;2.50;;;;;;;;;;5054701;28;20681;-52
2023/07/14 14:26:29;;;;;;;3.33;2.33;;;;;;;;;;5054422;28;20342;-52
2023/07/14 14:28:55;;;;;;;3.63;2.80;;;;;;;;;;5054719;28;20674;-52
2023/07/14 14:31:21;;;;;;;4.80;2.80;;;;;;;;;;5054788;28;20200;-51
2023/07/14 14:33:47;;;;;;;3.10;2.70;;;;;;;;;;5054351;28;20711;-51
2023/07/14 14:36:13;;;;;;;3.20;2.60;;;;;;;;;;5054659;28;20207;-52
2023/07/14 14:38:41;;;;;;;3.70;2.50;;;;;;;;;;5059127;28;20283;-52
2023/07/14 14:41:17;;;;;;;4.43;2.77;;;;;;;;;;5072806;28;20223;-51